Terminal Aerodrome Forecast
Issued by NWS

Home | Current Version | Previous Version | Text Only | Print | Product List | Glossary On
Versions: 1 2 3 4 5 6 7 8 9 10 11 12 13 14
509
FTUS46 KLOX 141126
TAFOXR
TAF
KOXR 141126Z 1412/1512 VRB03KT P6SM SKC
     FM141500 06012KT P6SM SKC
     FM142000 29010KT P6SM SCT250
     FM150300 04012KT P6SM SCT250
     FM151100 04012G22KT P6SM SCT250=

USA.gov is the U.S. government's official web portal to all federal, state and local government web resources and services.